Time;durP1;ratioP1;P1;durP2;ratioP2;P2;SDS_P1;SDS_P2;PMS_P1;PMS_P2;Temp;Humidity;BMP_temperature;BMP_pressure;BME280_temperature;BME280_humidity;BME280_pressure;Samples;Min_cycle;Max_cycle;Signal;HPM_P1;HPM_P2
2022/02/05 05:00:56;;;;;;;4.77;3.20;;;3.70;99.90;;;;;;5831879;23;20457;-67
2022/02/05 05:06:28;;;;;;;6.67;3.77;;;3.70;99.90;;;;;;4955922;29;20502;-67
2022/02/05 05:09:09;;;;;;;7.63;4.00;;;3.70;99.90;;;;;;4961217;29;20463;-67
2022/02/05 05:11:44;;;;;;;4.03;3.63;;;3.80;99.90;;;;;;4961635;29;20479;-67
2022/02/05 05:19:47;;;;;;;11.67;6.70;;;3.90;99.90;;;;;;4978758;29;20427;-67
2022/02/05 05:22:15;;;;;;;7.47;5.43;;;4.00;99.90;;;;;;4978025;29;20499;-67
2022/02/05 05:24:43;;;;;;;7.80;3.97;;;4.00;99.90;;;;;;4977895;29;20466;-67
2022/02/05 05:27:09;;;;;;;3.53;3.23;;;4.00;99.90;;;;;;4976961;29;20456;-67
2022/02/05 05:29:36;;;;;;;5.77;3.53;;;4.00;99.90;;;;;;4965157;29;20456;-68
2022/02/05 05:32:05;;;;;;;5.70;3.33;;;4.10;99.90;;;;;;4964191;28;20480;-68
2022/02/05 05:34:32;;;;;;;8.97;2.90;;;4.10;99.90;;;;;;4964447;28;20487;-68
2022/02/05 05:37:00;;;;;;;3.10;2.90;;;4.10;99.90;;;;;;4959080;29;20466;-68
2022/02/05 05:39:27;;;;;;;3.87;3.50;;;4.20;99.90;;;;;;4958245;29;20460;-68
2022/02/05 05:41:54;;;;;;;3.50;2.80;;;4.20;99.90;;;;;;4963793;29;20479;-68
2022/02/05 05:47:20;;;;;;;4.03;3.10;;;4.30;99.90;;;;;;4948090;29;20507;-68
2022/02/05 05:50:00;;;;;;;7.30;3.30;;;4.30;99.90;;;;;;4958628;29;20846;-68
2022/02/05 05:52:28;;;;;;;3.13;2.93;;;4.30;99.90;;;;;;4958317;28;20487;-68
2022/02/05 05:54:54;;;;;;;3.73;3.33;;;4.40;99.90;;;;;;4958713;29;20485;-68
2022/02/05 05:57:21;;;;;;;4.83;2.70;;;4.40;99.90;;;;;;4958717;29;20456;-68
2022/02/05 05:59:48;;;;;;;5.43;2.90;;;4.40;99.90;;;;;;4958752;29;20455;-67
2022/02/05 06:02:16;;;;;;;4.27;2.77;;;4.40;99.90;;;;;;4958300;29;20480;-68
2022/02/05 06:04:43;;;;;;;3.50;2.80;;;4.50;99.90;;;;;;4958110;29;20457;-67
2022/02/05 06:07:10;;;;;;;3.90;3.33;;;4.50;99.90;;;;;;4958525;29;20452;-68
2022/02/05 06:09:41;;;;;;;3.57;2.43;;;4.50;99.90;;;;;;4958603;29;20459;-68
2022/02/05 06:12:09;;;;;;;6.43;3.20;;;4.50;99.90;;;;;;4957916;29;20486;-68
2022/02/05 06:14:37;;;;;;;7.87;3.40;;;4.50;99.90;;;;;;4958302;28;20483;-68
2022/02/05 06:17:07;;;;;;;5.53;2.80;;;4.50;99.90;;;;;;4958717;29;20512;-67
2022/02/05 06:19:36;;;;;;;3.13;2.37;;;4.50;99.90;;;;;;4958057;29;20440;-68
2022/02/05 06:22:03;;;;;;;4.17;3.33;;;4.60;99.90;;;;;;4958465;29;20503;-67
2022/02/05 06:24:30;;;;;;;4.07;2.70;;;4.60;99.90;;;;;;4960200;29;20456;-68
2022/02/05 06:26:57;;;;;;;2.63;2.43;;;4.70;99.90;;;;;;4958858;29;20458;-67
2022/02/05 06:29:24;;;;;;;5.23;2.67;;;4.60;99.90;;;;;;4958421;29;20459;-67
2022/02/05 06:31:50;;;;;;;3.50;2.60;;;4.60;99.90;;;;;;4958349;29;20482;-68
2022/02/05 06:34:17;;;;;;;4.00;2.87;;;4.60;99.90;;;;;;4957068;29;21099;-68
2022/02/05 06:36:45;;;;;;;4.53;3.60;;;4.60;99.90;;;;;;4956816;29;20462;-67
2022/02/05 06:39:12;;;;;;;2.73;2.53;;;4.60;99.90;;;;;;4957007;28;20460;-68
2022/02/05 06:41:39;;;;;;;3.20;2.60;;;4.60;99.90;;;;;;4956562;29;20483;-67
2022/02/05 06:44:06;;;;;;;2.93;2.53;;;4.60;99.90;;;;;;4956224;29;20507;-67
2022/02/05 06:46:34;;;;;;;4.30;2.90;;;4.60;99.90;;;;;;4957715;28;20486;-67
2022/02/05 06:49:00;;;;;;;3.27;2.70;;;4.70;99.90;;;;;;4960670;29;20463;-67
2022/02/05 06:51:27;;;;;;;5.57;2.63;;;4.70;99.90;;;;;;4960044;29;20479;-67
2022/02/05 06:53:55;;;;;;;3.03;2.77;;;4.70;99.90;;;;;;4959593;29;20479;-67
2022/02/05 06:56:22;;;;;;;4.10;2.90;;;4.80;99.90;;;;;;4959909;29;20649;-67
2022/02/05 06:58:48;;;;;;;6.17;3.07;;;4.80;99.90;;;;;;4960006;29;20923;-67
2022/02/05 07:01:15;;;;;;;2.67;2.50;;;4.80;99.90;;;;;;4959704;29;20487;-67
2022/02/05 07:03:42;;;;;;;2.60;2.40;;;4.80;99.90;;;;;;4976788;29;20445;-67
2022/02/05 07:06:09;;;;;;;4.23;2.87;;;4.80;99.90;;;;;;4978402;29;20468;-66
2022/02/05 07:08:36;;;;;;;3.40;3.03;;;4.80;99.90;;;;;;4968441;29;20455;-67
2022/02/05 07:11:04;;;;;;;2.77;2.57;;;4.80;99.90;;;;;;4963310;29;20486;-67
2022/02/05 07:13:31;;;;;;;2.70;2.50;;;4.80;99.90;;;;;;4960571;29;20483;-67
2022/02/05 07:16:04;;;;;;;3.80;2.20;;;4.80;99.90;;;;;;4959940;29;20467;-67
2022/02/05 07:18:39;;;;;;;3.43;2.47;;;4.80;99.90;;;;;;4959426;29;20486;-67
2022/02/05 07:21:10;;;;;;;5.13;2.20;;;4.80;99.90;;;;;;4959891;29;20899;-68
2022/02/05 07:23:55;;;;;;;4.63;2.70;;;4.80;99.90;;;;;;4959468;29;20444;-67
2022/02/05 07:29:14;;;;;;;3.10;2.80;;;4.90;99.90;;;;;;4962713;29;20806;-67
2022/02/05 07:31:42;;;;;;;6.80;2.77;;;4.90;99.90;;;;;;4960159;29;20476;-67
2022/02/05 07:34:10;;;;;;;6.37;2.67;;;4.90;99.90;;;;;;4960199;29;20479;-66
2022/02/05 07:36:36;;;;;;;4.17;2.33;;;4.90;99.90;;;;;;4961381;28;20459;-67
2022/02/05 07:39:06;;;;;;;5.23;2.70;;;5.00;99.90;;;;;;4959119;29;20467;-67
2022/02/05 07:41:34;;;;;;;5.67;2.60;;;5.00;99.90;;;;;;4960446;29;20568;-67
2022/02/05 07:44:01;;;;;;;2.73;2.53;;;5.00;99.90;;;;;;4958820;29;20543;-67
2022/02/05 07:46:28;;;;;;;4.13;2.30;;;5.00;99.90;;;;;;4959327;29;20970;-67
2022/02/05 07:48:54;;;;;;;3.73;2.97;;;5.00;99.90;;;;;;4959318;28;20466;-67
2022/02/05 07:51:21;;;;;;;4.60;2.50;;;5.00;99.90;;;;;;4959155;29;20502;-67
2022/02/05 07:53:48;;;;;;;5.97;2.40;;;5.10;99.90;;;;;;4959334;29;20482;-69
2022/02/05 07:56:15;;;;;;;4.93;3.10;;;5.20;99.90;;;;;;4958878;28;20460;-68
2022/02/05 07:58:43;;;;;;;5.33;2.60;;;5.20;99.90;;;;;;4958714;28;20462;-69
2022/02/05 08:01:10;;;;;;;7.30;2.60;;;5.20;99.90;;;;;;4958229;28;20999;-69
2022/02/05 08:03:36;;;;;;;3.60;2.47;;;5.20;99.90;;;;;;4958798;28;20454;-69
2022/02/05 08:06:11;;;;;;;3.43;2.60;;;5.30;99.90;;;;;;4958559;29;20459;-69
2022/02/05 08:08:38;;;;;;;3.90;2.37;;;5.30;99.90;;;;;;4958789;29;20439;-69
2022/02/05 08:11:08;;;;;;;5.30;2.60;;;5.40;99.90;;;;;;4958683;29;20475;-68
2022/02/05 08:13:35;;;;;;;3.73;2.00;;;5.40;99.90;;;;;;4958702;29;20527;-69
2022/02/05 08:16:12;;;;;;;3.10;2.50;;;5.40;99.90;;;;;;4959223;29;20461;-69
2022/02/05 08:18:40;;;;;;;4.97;2.10;;;5.50;99.90;;;;;;4959028;29;20520;-68
2022/02/05 08:21:06;;;;;;;3.07;2.77;;;5.50;99.90;;;;;;4958179;29;20506;-68
2022/02/05 08:23:33;;;;;;;4.23;2.20;;;5.60;99.90;;;;;;4958808;29;20537;-68
2022/02/05 08:26:00;;;;;;;2.97;2.20;;;5.80;99.90;;;;;;4959229;29;20867;-68
2022/02/05 08:28:29;;;;;;;2.90;1.70;;;5.80;99.90;;;;;;4960268;29;20456;-68
2022/02/05 08:30:55;;;;;;;6.57;2.47;;;6.00;99.90;;;;;;4960911;29;21070;-70
2022/02/05 08:33:23;;;;;;;5.80;2.17;;;6.10;99.90;;;;;;4960740;29;21017;-69
2022/02/05 08:35:50;;;;;;;2.67;1.80;;;6.30;99.90;;;;;;4970347;28;20450;-69
2022/02/05 08:38:17;;;;;;;2.30;1.90;;;6.30;99.90;;;;;;4975156;29;20481;-69
2022/02/05 08:40:45;;;;;;;3.57;1.93;;;6.30;99.90;;;;;;4961708;29;20477;-69
2022/02/05 08:43:12;;;;;;;7.87;2.50;;;6.50;99.90;;;;;;4961370;29;20468;-69
2022/02/05 08:45:39;;;;;;;2.43;1.73;;;6.80;99.90;;;;;;4961556;29;20936;-68
2022/02/05 08:48:06;;;;;;;5.10;2.10;;;7.50;99.90;;;;;;4959406;29;20464;-69
2022/02/05 08:50:34;;;;;;;4.63;2.40;;;8.10;99.90;;;;;;4960209;28;20481;-68
2022/02/05 08:53:01;;;;;;;3.53;1.90;;;8.90;99.90;;;;;;4959689;29;20797;-69
2022/02/05 08:55:30;;;;;;;3.90;1.90;;;10.10;99.90;;;;;;4960281;29;21057;-68
2022/02/05 08:57:59;;;;;;;4.73;2.33;;;11.30;99.90;;;;;;4958970;29;20957;-68
2022/02/05 09:00:27;;;;;;;3.57;2.10;;;11.90;99.90;;;;;;4958776;29;20463;-69
2022/02/05 09:02:59;;;;;;;3.70;2.53;;;12.10;99.90;;;;;;4959271;29;20472;-68
2022/02/05 09:05:40;;;;;;;5.03;2.30;;;12.10;99.90;;;;;;4958932;28;20436;-68
2022/02/05 09:08:19;;;;;;;3.50;1.90;;;12.10;99.90;;;;;;4958431;28;20440;-69
2022/02/05 09:10:56;;;;;;;4.27;2.00;;;12.10;99.90;;;;;;4959508;29;20471;-69
2022/02/05 09:13:39;;;;;;;3.67;1.80;;;12.00;99.90;;;;;;4959347;29;20498;-69
2022/02/05 09:16:09;;;;;;;8.00;2.63;;;11.50;99.90;;;;;;4958405;29;20436;-69
2022/02/05 09:18:37;;;;;;;3.87;2.27;;;11.00;99.90;;;;;;4957963;29;20459;-69
2022/02/05 09:21:04;;;;;;;1.73;1.63;;;11.40;99.90;;;;;;4958455;29;21026;-68
2022/02/05 09:23:33;;;;;;;4.87;1.80;;;12.10;99.90;;;;;;4958756;29;20470;-69
2022/02/05 09:26:00;;;;;;;4.23;2.03;;;11.90;99.40;;;;;;4958315;28;20456;-69
2022/02/05 09:28:29;;;;;;;2.20;1.80;;;12.00;99.90;;;;;;4958384;29;20546;-69
2022/02/05 09:31:23;;;;;;;4.00;2.03;;;12.90;98.40;;;;;;4957845;29;20475;-69
2022/02/05 09:33:49;;;;;;;5.60;2.50;;;13.60;96.80;;;;;;4957026;29;20882;-68
2022/02/05 09:36:15;;;;;;;3.67;1.83;;;13.00;96.10;;;;;;4957659;29;20459;-68
2022/02/05 09:38:44;;;;;;;2.77;2.00;;;14.40;95.50;;;;;;4967953;29;20471;-69
2022/02/05 09:41:10;;;;;;;2.93;2.10;;;14.40;92.70;;;;;;4970662;29;20906;-68
2022/02/05 09:43:37;;;;;;;7.13;2.10;;;14.90;92.40;;;;;;4957337;29;20459;-68
2022/02/05 09:46:04;;;;;;;5.40;2.07;;;15.50;91.00;;;;;;4957749;29;20458;-68
2022/02/05 09:48:32;;;;;;;4.07;2.20;;;15.80;90.00;;;;;;4957309;29;20467;-68
2022/02/05 09:51:04;;;;;;;5.77;2.50;;;16.20;86.10;;;;;;4957012;29;20475;-67
2022/02/05 09:53:31;;;;;;;2.50;2.03;;;16.20;86.00;;;;;;4960604;29;20975;-67
2022/02/05 09:55:59;;;;;;;4.10;2.07;;;17.00;86.20;;;;;;4959755;29;20479;-69
2022/02/05 09:58:26;;;;;;;3.20;2.20;;;17.80;83.60;;;;;;4960220;29;20445;-68
2022/02/05 10:01:01;;;;;;;5.40;2.17;;;18.60;78.00;;;;;;4959787;28;20494;-69
2022/02/05 10:03:31;;;;;;;3.43;1.23;;;17.80;74.90;;;;;;4956857;29;20936;-69
2022/02/05 10:06:05;;;;;;;8.70;2.60;;;17.40;77.60;;;;;;4957517;29;20452;-67
2022/02/05 10:08:35;;;;;;;5.60;1.70;;;17.30;75.60;;;;;;4971282;28;20511;-69
2022/02/05 10:11:05;;;;;;;4.97;1.77;;;17.20;75.60;;;;;;4975701;29;20468;-69
2022/02/05 10:13:32;;;;;;;6.30;2.00;;;17.50;73.70;;;;;;4957633;29;20492;-68
2022/02/05 10:16:00;;;;;;;4.33;1.80;;;17.60;71.60;;;;;;4958014;29;20487;-68
2022/02/05 10:18:28;;;;;;;4.83;1.50;;;17.40;70.40;;;;;;4958509;29;20470;-68
2022/02/05 10:20:57;;;;;;;3.80;1.60;;;17.60;70.00;;;;;;4960069;28;20515;-69
2022/02/05 10:23:24;;;;;;;2.67;1.40;;;18.00;69.60;;;;;;4961907;29;20456;-69
2022/02/05 10:25:52;;;;;;;4.00;1.90;;;18.40;69.00;;;;;;4961844;29;20456;-69
2022/02/05 10:28:20;;;;;;;4.00;1.70;;;18.90;67.80;;;;;;4966709;29;20460;-69
2022/02/05 10:30:52;;;;;;;5.07;1.60;;;19.40;64.70;;;;;;4972111;29;20480;-69
2022/02/05 10:33:22;;;;;;;3.23;1.47;;;19.60;63.80;;;;;;4969294;29;20535;-68
2022/02/05 10:35:56;;;;;;;3.67;1.90;;;19.20;63.40;;;;;;4961593;29;21070;-68
2022/02/05 10:44:00;;;;;;;2.60;1.40;;;16.90;66.30;;;;;;4962146;29;20532;-68
2022/02/05 10:46:36;;;;;;;5.63;1.63;;;17.00;66.50;;;;;;4961690;28;20452;-68
2022/02/05 10:49:03;;;;;;;1.90;1.67;;;16.90;66.70;;;;;;4962317;29;20440;-68
2022/02/05 10:51:43;;;;;;;5.47;1.70;;;16.80;66.10;;;;;;4962954;29;20471;-67
2022/02/05 10:54:18;;;;;;;3.40;1.50;;;16.60;66.60;;;;;;4961479;29;20440;-68
2022/02/05 10:56:59;;;;;;;4.63;1.70;;;16.60;66.50;;;;;;4961430;29;20443;-67
2022/02/05 10:59:46;;;;;;;4.63;1.17;;;16.00;66.60;;;;;;4961887;28;20526;-68
2022/02/05 11:05:17;;;;;;;2.97;1.40;;;14.60;71.30;;;;;;4961547;29;20906;-69
2022/02/05 11:07:44;;;;;;;9.23;1.67;;;13.70;73.10;;;;;;4961860;29;20929;-68
2022/02/05 11:18:45;;;;;;;4.13;1.10;;;11.70;80.00;;;;;;4961861;29;20475;-68
2022/02/05 11:21:14;;;;;;;8.17;1.53;;;11.40;82.00;;;;;;4963608;29;20475;-68
2022/02/05 11:23:44;;;;;;;7.03;1.20;;;11.00;83.50;;;;;;4969517;29;20452;-68
2022/02/05 11:26:13;;;;;;;6.20;2.50;;;10.70;86.10;;;;;;4961560;28;20463;-68
2022/02/05 11:28:44;;;;;;;3.50;1.30;;;10.50;88.40;;;;;;4959852;29;20486;-67
2022/02/05 11:31:14;;;;;;;3.23;1.10;;;10.30;86.60;;;;;;4960087;28;20480;-69
2022/02/05 11:33:41;;;;;;;1.70;1.23;;;10.20;86.30;;;;;;4959399;29;20463;-68
2022/02/05 11:39:01;;;;;;;3.67;1.73;;;10.20;88.60;;;;;;4960747;29;20425;-67
2022/02/05 11:41:30;;;;;;;4.70;1.27;;;10.10;88.50;;;;;;4975223;29;20480;-67
2022/02/05 11:44:22;;;;;;;1.23;1.10;;;10.20;87.90;;;;;;4969519;29;20468;-68
2022/02/05 11:47:25;;;;;;;3.50;1.60;;;10.40;87.30;;;;;;4959605;29;20447;-68
2022/02/05 11:50:28;;;;;;;8.20;1.40;;;10.50;88.50;;;;;;4959566;29;20446;-68
2022/02/05 11:53:00;;;;;;;1.83;1.13;;;10.50;85.00;;;;;;4959819;29;20469;-68
2022/02/05 11:55:32;;;;;;;2.70;1.60;;;10.70;88.10;;;;;;4959172;29;20610;-67
2022/02/05 11:58:01;;;;;;;4.20;1.10;;;10.80;87.20;;;;;;4959200;28;20839;-68
2022/02/05 12:00:33;;;;;;;4.00;1.10;;;10.90;89.10;;;;;;4958396;29;20491;-68
2022/02/05 12:03:16;;;;;;;4.90;1.47;;;11.00;88.40;;;;;;4959110;29;20448;-68
2022/02/05 12:05:49;;;;;;;1.37;1.00;;;11.20;91.00;;;;;;4958840;29;20777;-68
2022/02/05 12:08:24;;;;;;;2.40;1.10;;;11.30;86.30;;;;;;4963020;29;20523;-68
2022/02/05 12:10:52;;;;;;;2.20;1.40;;;11.20;84.00;;;;;;4977832;29;20482;-67
2022/02/05 12:13:21;;;;;;;0.83;0.83;;;11.10;87.00;;;;;;4959567;29;20554;-68
2022/02/05 12:15:50;;;;;;;4.43;1.40;;;11.10;84.90;;;;;;4958636;28;20535;-68
2022/02/05 12:18:24;;;;;;;2.83;0.90;;;11.00;85.00;;;;;;4958367;29;20459;-68
2022/02/05 12:21:26;;;;;;;5.33;1.27;;;10.90;84.00;;;;;;4958902;29;20483;-67
2022/02/05 12:27:29;;;;;;;6.13;1.30;;;11.10;86.60;;;;;;4959748;29;20435;-68
2022/02/05 12:29:55;;;;;;;2.60;0.73;;;11.40;85.30;;;;;;4961468;29;20518;-68
2022/02/05 12:32:22;;;;;;;2.40;0.97;;;11.50;84.60;;;;;;4959438;29;20483;-68
2022/02/05 12:34:52;;;;;;;3.63;1.10;;;11.80;88.70;;;;;;4960175;28;20463;-67
2022/02/05 12:37:19;;;;;;;3.07;1.07;;;11.90;86.30;;;;;;4959809;29;20456;-68
2022/02/05 12:39:46;;;;;;;3.27;1.40;;;11.90;84.80;;;;;;4958478;28;20460;-68
2022/02/05 12:42:14;;;;;;;3.83;1.10;;;11.60;83.00;;;;;;4957880;29;20499;-69
2022/02/05 12:44:44;;;;;;;2.67;1.20;;;11.20;84.00;;;;;;4958178;28;20482;-69
2022/02/05 12:47:19;;;;;;;3.53;1.27;;;11.10;86.10;;;;;;4957418;29;20527;-69
2022/02/05 12:49:53;;;;;;;1.23;0.90;;;11.10;85.80;;;;;;4957783;29;20933;-68
2022/02/05 12:52:25;;;;;;;2.97;1.00;;;11.00;84.60;;;;;;4958358;29;20472;-68
2022/02/05 12:54:57;;;;;;;5.37;2.53;;;11.10;86.50;;;;;;4957846;29;20451;-68
2022/02/05 12:57:24;;;;;;;2.17;1.50;;;11.00;96.60;;;;;;4957992;28;20796;-68
2022/02/05 12:59:51;;;;;;;2.33;1.23;;;10.90;90.10;;;;;;4957864;29;20468;-69
2022/02/05 13:02:21;;;;;;;2.73;0.97;;;10.80;88.60;;;;;;4957216;29;20543;-68
2022/02/05 13:04:50;;;;;;;5.60;1.73;;;10.60;87.30;;;;;;4957845;29;20458;-68
2022/02/05 13:07:18;;;;;;;4.00;1.40;;;10.50;88.80;;;;;;4957820;29;20459;-68
2022/02/05 13:09:50;;;;;;;1.10;0.90;;;10.40;89.20;;;;;;4957692;29;20460;-68
2022/02/05 13:12:21;;;;;;;5.50;1.90;;;10.20;90.40;;;;;;4960329;29;20486;-68
2022/02/05 13:14:51;;;;;;;3.70;1.13;;;10.10;90.30;;;;;;4971293;29;20503;-68
2022/02/05 13:17:34;;;;;;;2.73;1.00;;;10.10;90.60;;;;;;4959174;29;20444;-68
2022/02/05 13:20:26;;;;;;;2.67;1.10;;;10.10;90.70;;;;;;4957786;29;20456;-68
2022/02/05 13:25:45;;;;;;;4.90;1.60;;;10.00;91.40;;;;;;4958240;29;20423;-68
2022/02/05 13:28:28;;;;;;;4.10;1.53;;;10.00;91.10;;;;;;4957219;29;20443;-71
2022/02/05 13:33:54;;;;;;;1.70;1.27;;;9.90;90.10;;;;;;4960563;29;20420;-67
2022/02/05 13:36:36;;;;;;;1.47;1.20;;;10.10;91.00;;;;;;4963903;29;20483;-67
2022/02/05 13:39:13;;;;;;;2.30;1.10;;;10.30;91.10;;;;;;4961842;29;20531;-68
2022/02/05 13:41:48;;;;;;;5.97;2.20;;;10.30;90.80;;;;;;4957208;29;20485;-67
2022/02/05 13:44:18;;;;;;;4.73;1.60;;;10.60;91.00;;;;;;4957073;29;20531;-67
2022/02/05 13:47:04;;;;;;;3.83;1.60;;;10.80;90.30;;;;;;4957843;29;20440;-67
2022/02/05 13:49:32;;;;;;;4.47;2.10;;;10.80;90.10;;;;;;4957041;29;20436;-67
2022/02/05 13:52:06;;;;;;;4.83;1.33;;;10.90;90.20;;;;;;4957263;29;20475;-67
2022/02/05 13:54:34;;;;;;;4.00;1.60;;;10.80;90.20;;;;;;4956128;28;20475;-67
2022/02/05 13:57:04;;;;;;;1.87;1.50;;;10.70;90.40;;;;;;4956117;29;20511;-67
2022/02/05 13:59:32;;;;;;;4.47;1.53;;;10.70;90.10;;;;;;4956956;29;20456;-67
2022/02/05 14:02:12;;;;;;;4.83;1.43;;;10.80;90.80;;;;;;4957589;29;20494;-67
2022/02/05 14:04:39;;;;;;;4.37;2.60;;;10.80;91.10;;;;;;4964302;29;20451;-67
2022/02/05 14:07:06;;;;;;;4.30;2.17;;;10.90;89.50;;;;;;4967751;29;20456;-67
2022/02/05 14:09:36;;;;;;;4.43;1.30;;;10.80;90.50;;;;;;4957211;28;20463;-67
2022/02/05 14:12:16;;;;;;;1.83;1.10;;;10.80;89.30;;;;;;4956766;29;20479;-67
2022/02/05 14:14:43;;;;;;;7.40;1.70;;;10.80;88.70;;;;;;4957333;29;20444;-67
2022/02/05 14:17:17;;;;;;;1.80;1.00;;;10.80;89.50;;;;;;4957929;29;20835;-67
2022/02/05 14:19:44;;;;;;;1.63;1.20;;;10.80;89.90;;;;;;4957592;29;20460;-67
2022/02/05 14:22:19;;;;;;;2.97;1.30;;;10.70;89.10;;;;;;4957651;29;20484;-67
2022/02/05 14:24:46;;;;;;;3.47;1.40;;;10.80;89.80;;;;;;4963350;29;20502;-67
2022/02/05 14:27:17;;;;;;;2.53;1.20;;;10.70;89.00;;;;;;4975203;29;20448;-67
2022/02/05 14:29:56;;;;;;;3.90;1.17;;;10.60;89.50;;;;;;4974471;28;20440;-68
2022/02/05 14:32:29;;;;;;;2.77;1.07;;;10.50;90.00;;;;;;4957138;28;20479;-67
2022/02/05 14:35:04;;;;;;;2.67;1.40;;;10.40;89.60;;;;;;4957664;29;20444;-68
2022/02/05 14:40:30;;;;;;;1.50;1.17;;;10.30;91.00;;;;;;4963325;29;20434;-67
2022/02/05 14:42:58;;;;;;;6.47;2.73;;;10.40;91.30;;;;;;4966880;29;20443;-68
2022/02/05 14:45:25;;;;;;;3.53;1.53;;;10.30;90.30;;;;;;4959766;28;20452;-67
2022/02/05 14:47:51;;;;;;;2.70;1.20;;;10.40;91.50;;;;;;4974055;29;20511;-68
2022/02/05 14:50:18;;;;;;;2.60;1.17;;;10.40;90.80;;;;;;4973761;29;20448;-68
2022/02/05 14:52:45;;;;;;;3.07;1.30;;;10.40;91.50;;;;;;4959661;29;20958;-67
2022/02/05 14:55:12;;;;;;;3.50;1.30;;;10.50;91.50;;;;;;4957252;29;20943;-67
2022/02/05 14:57:38;;;;;;;2.30;1.60;;;10.50;91.30;;;;;;4956565;29;20463;-67
2022/02/05 15:00:08;;;;;;;1.13;0.90;;;10.60;90.80;;;;;;4956024;29;20493;-68
2022/02/05 15:02:35;;;;;;;2.73;1.30;;;10.50;90.20;;;;;;4956348;29;20484;-67
2022/02/05 15:05:09;;;;;;;1.23;1.10;;;10.40;90.20;;;;;;4967295;29;20454;-68
2022/02/05 15:07:36;;;;;;;3.60;1.40;;;10.30;90.70;;;;;;4976595;28;20467;-68
2022/02/05 15:10:03;;;;;;;1.50;1.40;;;10.30;90.40;;;;;;4979695;29;20485;-67
2022/02/05 15:12:30;;;;;;;5.20;1.60;;;10.10;91.30;;;;;;4977414;29;20475;-67
2022/02/05 15:14:57;;;;;;;2.37;1.10;;;10.10;91.10;;;;;;4975085;29;20451;-67
2022/02/05 15:17:25;;;;;;;3.03;1.20;;;9.90;91.20;;;;;;4961437;29;20812;-67
2022/02/05 15:19:51;;;;;;;2.30;0.97;;;9.80;91.40;;;;;;4961451;29;20946;-69
2022/02/05 15:22:18;;;;;;;2.50;1.20;;;9.70;91.60;;;;;;4961164;29;20486;-68
2022/02/05 15:24:45;;;;;;;1.63;0.90;;;9.50;91.30;;;;;;4961350;29;20460;-68
2022/02/05 15:27:12;;;;;;;1.50;1.03;;;9.40;91.30;;;;;;4964680;29;20452;-68
2022/02/05 15:29:39;;;;;;;3.83;1.43;;;9.20;92.30;;;;;;4965851;29;20487;-68
2022/02/05 15:32:07;;;;;;;4.93;1.07;;;9.10;92.00;;;;;;4960531;29;20491;-68
2022/02/05 15:34:35;;;;;;;4.93;1.27;;;9.10;92.90;;;;;;4960308;28;20467;-68
2022/02/05 15:37:07;;;;;;;7.73;1.10;;;9.10;93.10;;;;;;4960315;29;20486;-69
2022/02/05 15:39:49;;;;;;;2.90;2.20;;;9.00;93.20;;;;;;4964031;28;20448;-67
2022/02/05 15:45:02;;;;;;;1.73;1.23;;;8.90;94.20;;;;;;4960289;29;20474;-68
2022/02/05 15:47:29;;;;;;;3.80;0.90;;;8.80;94.40;;;;;;4959365;29;20937;-67
2022/02/05 15:49:57;;;;;;;2.53;1.43;;;8.70;94.80;;;;;;4960497;29;20467;-68
2022/02/05 15:52:24;;;;;;;3.73;1.57;;;8.60;94.40;;;;;;4959816;29;20490;-67
2022/02/05 15:54:52;;;;;;;1.53;1.43;;;8.60;94.60;;;;;;4959432;29;20471;-68
2022/02/05 15:57:32;;;;;;;2.33;1.10;;;8.50;94.90;;;;;;4962607;29;20989;-67
2022/02/05 16:00:05;;;;;;;2.70;1.20;;;8.40;95.50;;;;;;4958869;29;20484;-67
2022/02/05 16:02:31;;;;;;;1.67;1.10;;;8.40;95.40;;;;;;4964546;29;20482;-68
2022/02/05 16:04:59;;;;;;;2.07;1.10;;;8.30;95.50;;;;;;4977166;28;20436;-67
2022/02/05 16:07:26;;;;;;;1.97;1.10;;;8.20;96.00;;;;;;4978731;29;20461;-67
2022/02/05 16:09:53;;;;;;;1.07;1.03;;;8.00;96.00;;;;;;4978811;29;20458;-67
2022/02/05 16:12:19;;;;;;;4.50;1.10;;;7.90;96.50;;;;;;4978151;29;20486;-68
2022/02/05 16:14:46;;;;;;;1.43;1.30;;;7.80;96.70;;;;;;4977877;29;20463;-67
2022/02/05 16:17:13;;;;;;;4.23;1.57;;;7.80;96.90;;;;;;4979436;28;20453;-67
2022/02/05 16:19:39;;;;;;;2.50;1.43;;;7.70;97.30;;;;;;4980005;28;20458;-67
2022/02/05 16:22:08;;;;;;;3.63;1.57;;;7.70;97.80;;;;;;4971371;29;20479;-68
2022/02/05 16:24:34;;;;;;;5.03;1.60;;;7.60;98.50;;;;;;4959104;28;20465;-67
2022/02/05 16:27:01;;;;;;;3.33;1.50;;;7.50;99.50;;;;;;4959038;29;20450;-69
2022/02/05 16:29:28;;;;;;;3.23;1.53;;;7.50;99.90;;;;;;4958307;29;20830;-67
2022/02/05 16:31:56;;;;;;;2.43;1.30;;;7.70;99.90;;;;;;4976993;28;20565;-67
2022/02/05 16:34:25;;;;;;;1.70;1.10;;;7.70;99.90;;;;;;4961220;28;20446;-67
2022/02/05 16:36:52;;;;;;;2.67;1.70;;;7.60;99.90;;;;;;4959913;28;20568;-67
2022/02/05 16:39:25;;;;;;;2.67;1.37;;;7.80;99.90;;;;;;4967825;29;20459;-68
2022/02/05 16:41:52;;;;;;;;;;;7.70;99.90;;;;;;4966163;29;20298;-67
2022/02/05 16:44:18;;;;;;;;;;;7.70;99.90;;;;;;4959141;29;19922;-68
2022/02/05 16:46:47;;;;;;;;;;;7.60;99.90;;;;;;4958595;29;20310;-69
2022/02/05 16:49:14;;;;;;;;;;;7.50;99.90;;;;;;4958404;29;20349;-68
2022/02/05 16:51:42;;;;;;;2.70;1.57;;;7.50;99.90;;;;;;4957704;29;20217;-67
2022/02/05 16:54:10;;;;;;;1.60;1.37;;;7.70;99.90;;;;;;4958528;29;20446;-68
2022/02/05 16:56:38;;;;;;;3.40;3.10;;;7.90;99.90;;;;;;4963646;29;20475;-67
2022/02/05 16:59:05;;;;;;;2.63;2.17;;;7.90;99.90;;;;;;4966357;28;20457;-69
2022/02/05 17:01:32;;;;;;;3.30;2.07;;;7.80;99.90;;;;;;4957924;29;20490;-66
2022/02/05 17:03:59;;;;;;;5.30;1.93;;;7.80;99.90;;;;;;4959102;29;20469;-65
2022/02/05 17:06:28;;;;;;;3.97;3.47;;;7.60;99.90;;;;;;4958884;29;20447;-64
2022/02/05 17:08:55;;;;;;;2.80;2.40;;;7.60;99.90;;;;;;4969358;28;20436;-66
2022/02/05 17:11:22;;;;;;;1.70;1.60;;;7.40;99.90;;;;;;4963901;29;20478;-66
2022/02/05 17:13:53;;;;;;;3.50;1.30;;;7.40;99.90;;;;;;4959067;29;20447;-64
2022/02/05 17:16:20;;;;;;;1.90;1.20;;;7.40;99.90;;;;;;4957647;29;20552;-65
2022/02/05 17:18:47;;;;;;;2.77;1.93;;;7.30;99.90;;;;;;4958051;29;20469;-67
2022/02/05 17:21:14;;;;;;;1.50;1.40;;;7.30;99.90;;;;;;4966987;29;20488;-66
2022/02/05 17:23:42;;;;;;;4.80;2.20;;;7.30;99.90;;;;;;4971782;29;20857;-65
2022/02/05 17:26:13;;;;;;;7.27;4.13;;;7.30;99.90;;;;;;4958718;29;20463;-66
2022/02/05 17:28:40;;;;;;;6.13;3.27;;;7.30;99.90;;;;;;4957784;28;20796;-66
2022/02/05 17:31:08;;;;;;;4.00;1.73;;;7.30;99.90;;;;;;4956860;28;20494;-64
2022/02/05 17:33:35;;;;;;;3.27;2.13;;;7.20;99.90;;;;;;4957390;29;20457;-65
2022/02/05 17:36:03;;;;;;;4.27;1.90;;;7.10;99.90;;;;;;4958055;29;20466;-66
2022/02/05 17:38:32;;;;;;;6.17;2.53;;;7.10;99.90;;;;;;4957491;29;20809;-65
2022/02/05 17:41:00;;;;;;;2.33;2.13;;;7.10;99.90;;;;;;4958662;29;20478;-65
2022/02/05 17:43:29;;;;;;;3.23;2.93;;;7.00;99.90;;;;;;4959351;29;20550;-65
2022/02/05 17:45:56;;;;;;;5.80;3.50;;;6.90;99.90;;;;;;4958434;29;20458;-65
2022/02/05 17:48:27;;;;;;;4.30;3.27;;;6.90;99.90;;;;;;4958456;29;20457;-66
2022/02/05 17:50:54;;;;;;;3.30;2.60;;;6.80;99.90;;;;;;4967306;28;20482;-65
2022/02/05 17:53:21;;;;;;;5.63;2.20;;;6.70;99.90;;;;;;4978149;29;20452;-65
2022/02/05 17:55:50;;;;;;;2.80;2.40;;;6.70;99.90;;;;;;4962352;29;20457;-65
2022/02/05 17:58:18;;;;;;;4.07;2.70;;;6.60;99.90;;;;;;4957962;29;20513;-65
2022/02/05 18:00:44;;;;;;;3.77;2.57;;;6.60;99.90;;;;;;4958045;29;20545;-66
2022/02/05 18:03:11;;;;;;;6.60;2.47;;;6.60;99.90;;;;;;4958545;29;20460;-66
2022/02/05 18:05:48;;;;;;;3.43;2.30;;;6.50;99.90;;;;;;4957925;29;20498;-65
2022/02/05 18:08:29;;;;;;;2.47;2.27;;;6.60;99.90;;;;;;4958180;29;20449;-66
2022/02/05 18:11:01;;;;;;;7.17;2.37;;;6.60;99.90;;;;;;4959998;29;20482;-66
2022/02/05 18:13:53;;;;;;;7.87;2.60;;;6.60;99.90;;;;;;4958091;29;20442;-65
2022/02/05 18:16:20;;;;;;;8.63;2.10;;;6.60;99.90;;;;;;4958071;29;20445;-66
2022/02/05 18:18:47;;;;;;;3.83;2.80;;;6.70;99.90;;;;;;4962218;29;20454;-66
2022/02/05 18:21:15;;;;;;;3.53;2.30;;;6.70;99.90;;;;;;4972108;29;20478;-67
2022/02/05 18:23:43;;;;;;;4.03;2.67;;;6.70;99.90;;;;;;4956816;28;20473;-67
2022/02/05 18:26:10;;;;;;;4.77;1.97;;;6.70;99.90;;;;;;4956914;29;20494;-68
2022/02/05 18:28:36;;;;;;;4.40;1.60;;;6.70;99.90;;;;;;4957107;29;20452;-68
2022/02/05 18:31:03;;;;;;;5.70;2.20;;;6.70;99.90;;;;;;4956469;28;20479;-67
2022/02/05 18:33:31;;;;;;;2.47;2.27;;;6.70;99.90;;;;;;4956838;29;20443;-67
2022/02/05 18:35:58;;;;;;;4.37;2.30;;;6.70;99.90;;;;;;4957163;29;20456;-65
2022/02/05 18:38:27;;;;;;;4.47;2.23;;;6.60;99.90;;;;;;4958046;29;20835;-66
2022/02/05 18:40:54;;;;;;;4.30;3.47;;;6.60;99.90;;;;;;4956891;28;20514;-66
2022/02/05 18:43:22;;;;;;;2.53;2.20;;;6.60;99.90;;;;;;4962074;29;20460;-66
2022/02/05 18:45:49;;;;;;;4.90;2.77;;;6.60;99.90;;;;;;4961472;28;20794;-65
2022/02/05 18:48:16;;;;;;;4.20;3.03;;;6.60;99.90;;;;;;4960881;28;20458;-66
2022/02/05 18:50:43;;;;;;;2.77;2.17;;;6.70;99.90;;;;;;4961371;29;20844;-65
2022/02/05 18:53:11;;;;;;;3.10;2.40;;;6.70;99.90;;;;;;4963202;29;20450;-67
2022/02/05 18:55:39;;;;;;;4.37;2.57;;;6.60;99.90;;;;;;4963776;28;20942;-65